Terminal Aerodrome Forecast
Issued by NWS

Home | Current Version | Previous Version | Text Only | Print | Product List | Glossary On
Versions: 1 2 3 4 5 6 7 8 9 10 11 12 13 14 15 16 17
000
FTUS46 KSEW 271202 AAA
TAFHQM
TAF AMD
KHQM 271202Z 2712/2812 VRB03KT 5SM BR OVC006
      TEMPO 2712/2716 2SM BR SCT006 BKN040
     FM271600 24007KT P6SM VCSH SCT015 BKN035 BKN050
     FM272200 24012KT P6SM -SHRA BKN035 BKN050
     FM280500 27006KT P6SM BKN035 BKN050=

USA.gov is the U.S. government's official web portal to all federal, state and local government web resources and services.